Nocc Pamplona — LALG5 — position and weather

sailwx.info

Track history (hours):
 
Tides and Currents Weather Stations Pressure Air Temp Water Temp Dewpoint Dewpoint Depression Visibility Wind Speed Wind Dir Waves Ship Positions

Nocc Pamplona

Last reported at 2015-Apr-22 06:24 UTC. Time now 2015-May-06 10:27 UTC.
Position N 33°60' E 128°25'.
Warning: this ship's position is 14 days out of date.

Length 177 m; draft 6.8 m.

Type: Cargo ship. MMSI: 257349000.

Date/timePositionNaut miles runAvg speedWind from/ knotsBaromVisibWave heightAir tempDewpointWater temp
2015-Apr-22 06:24N 33°60' E 128°25'1416.2
2015-Apr-22 05:31N 33°48' E 128°14'79116.5
2015-Apr-20 05:30N 22°08' E 121°18'  
2015-Apr-16 04:33N 01°15' E 104°10'1616.2
2015-Apr-16 03:34N 01°12' E 103°54'7013.9
2015-Apr-15 22:33N 01°37' E 102°49'2017.3
2015-Apr-15 21:23N 01°45' E 102°31'1417.0
2015-Apr-15 20:33N 01°51' E 102°18'5 0.3
2015-Apr-15 03:33N 01°56' E 102°17'1919.4
2015-Apr-15 02:33N 01°49' E 102°35'2019.1
2015-Apr-15 01:31N 01°41' E 102°53'2218.8
2015-Apr-15 00:21N 01°28' E 103°11'3415.1
2015-Apr-14 22:05N 01°14' E 103°42'5 7.8
2015-Apr-14 21:28N 01°17' E 103°45'0 0.0
2015-Apr-14 20:28N 01°17' E 103°45'0 0.0
2015-Apr-14 19:28N 01°17' E 103°45'0 0.0
2015-Apr-14 18:28N 01°17' E 103°45'0 0.0
2015-Apr-14 17:28N 01°17' E 103°45'0 0.0
2015-Apr-14 16:28N 01°17' E 103°45'0 0.0
2015-Apr-14 15:22N 01°17' E 103°45'0 0.0
2015-Apr-14 14:28N 01°17' E 103°45'3 3.4
2015-Apr-14 13:33N 01°14' E 103°47'9 9.5
2015-Apr-14 12:34N 01°15' E 103°56'3 2.6
2015-Apr-14 11:21N 01°17' E 103°54'0 0.0
2015-Apr-14 10:21N 01°17' E 103°54'0 0.1
2015-Apr-14 09:09N 01°17' E 103°54'0 0.1
2015-Apr-14 08:27N 01°17' E 103°54'0 0.0
2015-Apr-14 07:27N 01°17' E 103°54'0 0.0
2015-Apr-14 06:21N 01°17' E 103°54'0 0.0
2015-Apr-14 05:09N 01°17' E 103°54'0 0.0
2015-Apr-14 04:33N 01°17' E 103°54'0 0.1
2015-Apr-14 03:27N 01°17' E 103°54'0 0.0
2015-Apr-14 02:33N 01°17' E 103°54'0 0.0
2015-Apr-14 01:27N 01°17' E 103°54'0 0.0
2015-Apr-14 00:33N 01°17' E 103°54'0 0.2
2015-Apr-13 22:33N 01°17' E 103°55'9 8.8
2015-Apr-13 21:33N 01°17' E 104°03'4 4.3
2015-Apr-13 20:33N 01°21' E 104°03'8 8.0
2015-Apr-13 19:33N 01°25' E 103°56'6 0.6
2015-Apr-13 09:29N 01°28' E 103°50'8 8.9
2015-Apr-13 08:32N 01°24' E 103°57'1111.2
2015-Apr-13 07:33N 01°18' E 104°07'8 7.7
2015-Apr-13 06:33N 01°18' E 104°14'  
Track history (hours):
 
Tides and Currents Weather Stations Pressure Air Temp Water Temp Dewpoint Dewpoint Depression Visibility Wind Speed Wind Dir Waves Ship Positions

Nocc Pamplona

Last reported at 2015-Apr-22 06:24 UTC. Time now 2015-May-06 10:27 UTC.
Position N 33°60' E 128°25'.
Warning: this ship's position is 14 days out of date.

Length 177 m; draft 6.8 m.

Type: Cargo ship. MMSI: 257349000.

Date/timePositionNaut miles runAvg speedWind from/ knotsBaromVisibWave heightAir tempDewpointWater temp
2015-Apr-22 06:24N 33°60' E 128°25'1416.2
2015-Apr-22 05:31N 33°48' E 128°14'79116.5
2015-Apr-20 05:30N 22°08' E 121°18'  
2015-Apr-16 04:33N 01°15' E 104°10'1616.2
2015-Apr-16 03:34N 01°12' E 103°54'7013.9
2015-Apr-15 22:33N 01°37' E 102°49'2017.3
2015-Apr-15 21:23N 01°45' E 102°31'1417.0
2015-Apr-15 20:33N 01°51' E 102°18'5 0.3
2015-Apr-15 03:33N 01°56' E 102°17'1919.4
2015-Apr-15 02:33N 01°49' E 102°35'2019.1
2015-Apr-15 01:31N 01°41' E 102°53'2218.8
2015-Apr-15 00:21N 01°28' E 103°11'3415.1
2015-Apr-14 22:05N 01°14' E 103°42'5 7.8
2015-Apr-14 21:28N 01°17' E 103°45'0 0.0
2015-Apr-14 20:28N 01°17' E 103°45'0 0.0
2015-Apr-14 19:28N 01°17' E 103°45'0 0.0
2015-Apr-14 18:28N 01°17' E 103°45'0 0.0
2015-Apr-14 17:28N 01°17' E 103°45'0 0.0
2015-Apr-14 16:28N 01°17' E 103°45'0 0.0
2015-Apr-14 15:22N 01°17' E 103°45'0 0.0
2015-Apr-14 14:28N 01°17' E 103°45'3 3.4
2015-Apr-14 13:33N 01°14' E 103°47'9 9.5
2015-Apr-14 12:34N 01°15' E 103°56'3 2.6
2015-Apr-14 11:21N 01°17' E 103°54'0 0.0
2015-Apr-14 10:21N 01°17' E 103°54'0 0.1
2015-Apr-14 09:09N 01°17' E 103°54'0 0.1
2015-Apr-14 08:27N 01°17' E 103°54'0 0.0
2015-Apr-14 07:27N 01°17' E 103°54'0 0.0
2015-Apr-14 06:21N 01°17' E 103°54'0 0.0
2015-Apr-14 05:09N 01°17' E 103°54'0 0.0
2015-Apr-14 04:33N 01°17' E 103°54'0 0.1
2015-Apr-14 03:27N 01°17' E 103°54'0 0.0
2015-Apr-14 02:33N 01°17' E 103°54'0 0.0
2015-Apr-14 01:27N 01°17' E 103°54'0 0.0
2015-Apr-14 00:33N 01°17' E 103°54'0 0.2
2015-Apr-13 22:33N 01°17' E 103°55'9 8.8
2015-Apr-13 21:33N 01°17' E 104°03'4 4.3
2015-Apr-13 20:33N 01°21' E 104°03'8 8.0
2015-Apr-13 19:33N 01°25' E 103°56'6 0.6
2015-Apr-13 09:29N 01°28' E 103°50'8 8.9
2015-Apr-13 08:32N 01°24' E 103°57'1111.2
2015-Apr-13 07:33N 01°18' E 104°07'8 7.7
2015-Apr-13 06:33N 01°18' E 104°14'  

Dump ship's entire track history